createdAt,value
2018-07-22T00:00:11.972Z,78.20
2018-07-22T00:02:41.400Z,78.26
2018-07-22T00:05:10.464Z,78.91
2018-07-22T00:07:39.763Z,80.71
2018-07-22T00:10:26.539Z,81.44
2018-07-22T00:12:55.584Z,81.16
2018-07-22T00:15:24.596Z,82.09
2018-07-22T00:17:53.635Z,82.81
2018-07-22T00:20:22.692Z,82.73
2018-07-22T00:22:51.745Z,82.31
2018-07-22T00:25:20.804Z,81.10
2018-07-22T00:27:49.884Z,80.44
2018-07-22T00:30:18.877Z,80.11
2018-07-22T00:32:47.869Z,80.03
2018-07-22T00:35:16.881Z,80.15
2018-07-22T00:37:45.847Z,80.75
2018-07-22T00:40:14.835Z,82.11
2018-07-22T00:42:43.877Z,82.29
2018-07-22T00:45:14.864Z,81.70
2018-07-22T00:47:43.851Z,81.68
2018-07-22T00:50:12.849Z,82.09
2018-07-22T00:52:41.868Z,83.24
2018-07-22T00:55:10.831Z,83.80
2018-07-22T00:57:39.808Z,83.71
2018-07-22T01:00:09.354Z,83.55
2018-07-22T01:02:38.341Z,83.05
2018-07-22T01:05:07.472Z,83.86
2018-07-22T01:07:36.466Z,83.38
2018-07-22T01:10:05.599Z,84.64
2018-07-22T01:12:34.613Z,84.13
2018-07-22T01:15:03.781Z,84.23
2018-07-22T01:17:32.788Z,84.02
2018-07-22T01:20:01.787Z,83.89
2018-07-22T01:22:30.768Z,83.65
2018-07-22T01:24:59.810Z,82.54
2018-07-22T01:27:28.850Z,83.26
2018-07-22T01:29:57.895Z,81.61
2018-07-22T01:32:26.900Z,81.66
2018-07-22T01:34:55.860Z,83.46
2018-07-22T01:37:24.905Z,84.65
2018-07-22T01:39:53.933Z,83.92
2018-07-22T01:42:23.001Z,84.87
2018-07-22T01:44:52.025Z,84.95
2018-07-22T01:47:21.129Z,84.84
2018-07-22T01:49:50.219Z,85.36
2018-07-22T01:52:19.236Z,85.70
2018-07-22T01:54:48.271Z,85.77
2018-07-22T01:57:17.292Z,86.19
2018-07-22T01:59:46.337Z,85.87
2018-07-22T02:02:15.353Z,85.40
2018-07-22T02:04:44.392Z,86.06
2018-07-22T02:07:13.413Z,86.25
2018-07-22T02:09:42.465Z,85.35
2018-07-22T02:12:11.436Z,85.11
2018-07-22T02:14:40.391Z,83.70
2018-07-22T02:17:09.390Z,84.33
2018-07-22T02:19:38.379Z,83.78
2018-07-22T02:22:07.441Z,83.33
2018-07-22T02:24:36.402Z,84.17
2018-07-22T02:27:05.445Z,83.49
2018-07-22T02:29:34.399Z,83.52
2018-07-22T02:32:03.427Z,83.19
2018-07-22T02:34:32.399Z,83.28
2018-07-22T02:37:01.474Z,84.29
2018-07-22T02:39:30.444Z,84.68
2018-07-22T02:41:59.539Z,85.01
2018-07-22T02:44:28.512Z,85.12
2018-07-22T02:46:57.463Z,85.47
2018-07-22T02:49:26.510Z,86.25
2018-07-22T02:51:55.496Z,85.97
2018-07-22T02:54:24.492Z,85.92
2018-07-22T02:56:53.464Z,86.43
2018-07-22T02:59:22.503Z,85.99
2018-07-22T03:01:51.557Z,86.43
2018-07-22T03:04:20.532Z,86.64
2018-07-22T03:06:49.592Z,86.86
2018-07-22T03:09:18.629Z,87.38
2018-07-22T03:11:47.616Z,86.50
2018-07-22T03:14:16.597Z,86.29
2018-07-22T03:16:45.636Z,85.99
2018-07-22T03:19:14.591Z,86.35
2018-07-22T03:21:43.688Z,87.25
2018-07-22T03:24:12.672Z,86.93
2018-07-22T03:26:41.645Z,87.27
2018-07-22T03:29:10.682Z,86.54
2018-07-22T03:31:39.656Z,86.10
2018-07-22T03:34:08.929Z,85.35
2018-07-22T03:36:37.891Z,86.12
2018-07-22T03:39:09.291Z,85.98
2018-07-22T03:41:38.333Z,86.20
2018-07-22T03:44:07.544Z,86.88
2018-07-22T03:46:36.572Z,86.18
2018-07-22T03:49:05.757Z,85.12
2018-07-22T03:51:34.725Z,85.45
2018-07-22T03:54:03.715Z,85.33
2018-07-22T03:56:32.714Z,85.27
2018-07-22T03:59:01.696Z,83.89
2018-07-22T04:01:30.788Z,83.81
2018-07-22T04:03:59.854Z,82.85
2018-07-22T04:06:28.856Z,82.36
2018-07-22T04:08:57.827Z,82.90
2018-07-22T04:11:26.865Z,83.24
2018-07-22T04:13:55.867Z,82.06
2018-07-22T04:16:24.852Z,82.36
2018-07-22T04:18:54.611Z,82.04
2018-07-22T04:21:24.646Z,82.92
2018-07-22T04:23:53.644Z,82.07
2018-07-22T04:26:22.944Z,82.66
2018-07-22T04:28:52.384Z,81.92
2018-07-22T04:31:21.564Z,81.79
2018-07-22T04:33:50.785Z,80.66
2018-07-22T04:36:19.833Z,79.75
2018-07-22T04:38:48.900Z,78.18
2018-07-22T04:41:17.936Z,78.54
2018-07-22T04:43:46.892Z,76.39
2018-07-22T04:46:15.994Z,73.97
2018-07-22T04:48:44.944Z,74.07
2018-07-22T04:51:14.065Z,73.64
2018-07-22T04:53:43.032Z,74.56
2018-07-22T04:56:12.009Z,73.69
2018-07-22T04:58:41.066Z,73.38
2018-07-22T05:01:10.112Z,73.56
2018-07-22T05:03:39.112Z,73.65
2018-07-22T05:06:08.091Z,72.17
2018-07-22T05:08:37.068Z,73.06
2018-07-22T05:11:06.173Z,73.02
2018-07-22T05:13:35.220Z,72.56
2018-07-22T05:16:04.253Z,71.48
2018-07-22T05:18:33.276Z,70.27
2018-07-22T05:21:02.347Z,71.09
2018-07-22T05:23:31.321Z,70.22
2018-07-22T05:26:00.304Z,70.14
2018-07-22T05:28:29.349Z,69.29
2018-07-22T05:30:58.335Z,67.53
2018-07-22T05:33:27.333Z,67.93
2018-07-22T05:35:56.455Z,67.74
2018-07-22T05:38:25.501Z,66.54
2018-07-22T05:40:54.473Z,64.49
2018-07-22T05:43:23.568Z,65.93
2018-07-22T05:45:52.617Z,65.02
2018-07-22T05:48:21.681Z,65.17
2018-07-22T05:50:50.724Z,64.58
2018-07-22T05:53:19.704Z,64.81
2018-07-22T05:55:48.728Z,65.21
2018-07-22T05:58:17.820Z,63.88
2018-07-22T06:00:46.916Z,63.62
2018-07-22T06:03:15.899Z,63.32
2018-07-22T06:05:44.916Z,63.31
2018-07-22T06:08:13.893Z,63.17
2018-07-22T06:10:42.891Z,62.40
2018-07-22T06:13:11.933Z,62.52
2018-07-22T06:15:40.907Z,63.85
2018-07-22T06:18:09.986Z,60.37
2018-07-22T06:20:39.192Z,62.11
2018-07-22T06:23:08.195Z,59.77
2018-07-22T06:25:37.171Z,60.24
2018-07-22T06:28:06.433Z,60.16
2018-07-22T06:30:35.480Z,58.37
2018-07-22T06:33:04.533Z,56.94
2018-07-22T06:35:33.572Z,56.57
2018-07-22T06:38:02.561Z,56.05
2018-07-22T06:40:32.472Z,55.80
2018-07-22T06:43:01.577Z,58.09
2018-07-22T06:45:30.564Z,57.27
2018-07-22T06:47:59.721Z,55.35
2018-07-22T06:50:28.741Z,54.74
2018-07-22T06:52:57.759Z,56.02
2018-07-22T06:55:26.845Z,54.42
2018-07-22T06:57:55.810Z,53.00
2018-07-22T07:00:24.899Z,54.26
2018-07-22T07:02:53.872Z,52.31
2018-07-22T07:05:23.045Z,52.77
2018-07-22T07:07:52.051Z,51.26
2018-07-22T07:10:21.063Z,50.79
2018-07-22T07:12:50.109Z,49.80
2018-07-22T07:15:19.096Z,49.51
2018-07-22T07:17:48.083Z,48.50
2018-07-22T07:20:17.217Z,48.29
2018-07-22T07:22:46.207Z,48.43
2018-07-22T07:25:15.277Z,46.72
2018-07-22T07:27:44.384Z,45.58
2018-07-22T07:30:13.376Z,45.20
2018-07-22T07:32:42.347Z,45.49
2018-07-22T07:35:11.343Z,45.10
2018-07-22T07:37:40.323Z,43.96
2018-07-22T07:40:09.369Z,43.58
2018-07-22T07:42:38.407Z,44.07
2018-07-22T07:45:07.555Z,42.17
2018-07-22T07:47:36.527Z,42.31
2018-07-22T07:50:05.975Z,42.07
2018-07-22T07:52:35.000Z,41.43
2018-07-22T07:55:04.083Z,41.11
2018-07-22T07:57:33.182Z,40.10
2018-07-22T08:00:02.244Z,41.08
2018-07-22T08:02:31.348Z,41.60
2018-07-22T08:05:00.404Z,40.92
2018-07-22T08:07:29.476Z,40.90
2018-07-22T08:09:58.511Z,41.22
2018-07-22T08:12:27.697Z,41.52
2018-07-22T08:14:56.938Z,40.14
2018-07-22T08:17:26.095Z,39.11
2018-07-22T08:19:55.236Z,40.68
2018-07-22T08:22:24.416Z,39.46
2018-07-22T08:24:53.469Z,37.85
2018-07-22T08:27:22.449Z,38.93
2018-07-22T08:29:51.447Z,37.65
2018-07-22T08:32:20.416Z,37.83
2018-07-22T08:34:49.493Z,39.51
2018-07-22T08:37:18.487Z,39.94
2018-07-22T08:39:47.515Z,40.76
2018-07-22T08:42:16.598Z,38.08
2018-07-22T08:44:45.653Z,38.32
2018-07-22T08:47:14.712Z,36.52
2018-07-22T08:49:43.740Z,37.59
2018-07-22T08:52:12.820Z,38.38
2018-07-22T08:54:41.782Z,37.48
2018-07-22T08:57:10.776Z,36.12
2018-07-22T08:59:40.900Z,36.16
2018-07-22T09:02:10.105Z,35.47
2018-07-22T09:04:39.142Z,34.99
2018-07-22T09:07:08.192Z,36.19
2018-07-22T09:09:37.242Z,36.28
2018-07-22T09:12:06.227Z,34.68
2018-07-22T09:14:35.220Z,34.51
2018-07-22T09:17:04.218Z,33.61
2018-07-22T09:19:33.199Z,34.00
2018-07-22T09:22:02.179Z,35.13
2018-07-22T09:24:31.184Z,34.51
2018-07-22T09:27:00.257Z,33.25
2018-07-22T09:29:29.292Z,31.89
2018-07-22T09:31:58.403Z,32.54
2018-07-22T09:34:27.484Z,30.01
2018-07-22T09:36:56.764Z,28.97
2018-07-22T09:39:25.751Z,31.86
2018-07-22T09:41:56.178Z,31.36
2018-07-22T09:44:25.170Z,29.27
2018-07-22T09:46:54.201Z,31.67
2018-07-22T09:49:23.199Z,31.14
2018-07-22T09:51:52.197Z,31.32
2018-07-22T09:54:21.320Z,31.48
2018-07-22T09:56:50.296Z,28.75
2018-07-22T09:59:19.438Z,28.41
2018-07-22T10:01:48.451Z,28.22
2018-07-22T10:04:17.519Z,30.37
2018-07-22T10:06:46.562Z,30.81
2018-07-22T10:09:15.597Z,30.72
2018-07-22T10:11:44.737Z,30.32
2018-07-22T10:14:13.724Z,31.38
2018-07-22T10:16:42.823Z,27.63
2018-07-22T10:19:11.807Z,29.12
2018-07-22T10:21:40.917Z,31.66
2018-07-22T10:24:10.541Z,31.73
2018-07-22T10:26:39.504Z,30.76
2018-07-22T10:29:08.619Z,31.01
2018-07-22T10:31:37.571Z,28.92
2018-07-22T10:34:06.732Z,31.24
2018-07-22T10:36:35.784Z,31.43
2018-07-22T10:39:06.872Z,31.20
2018-07-22T10:41:36.913Z,31.76
2018-07-22T10:44:06.092Z,31.87
2018-07-22T10:46:35.092Z,31.68
2018-07-22T10:49:04.192Z,34.21
2018-07-22T10:51:34.124Z,31.45
2018-07-22T10:54:03.155Z,31.51
2018-07-22T10:56:32.340Z,29.37
2018-07-22T10:59:01.317Z,29.06
2018-07-22T11:01:30.325Z,31.15
2018-07-22T11:03:59.327Z,30.94
2018-07-22T11:06:28.427Z,28.42
2018-07-22T11:08:57.477Z,29.61
2018-07-22T11:11:26.776Z,28.78
2018-07-22T11:13:55.848Z,28.24
2018-07-22T11:16:24.831Z,29.30
2018-07-22T11:18:53.864Z,28.01
2018-07-22T11:21:23.058Z,29.99
2018-07-22T11:23:52.624Z,29.57
2018-07-22T11:26:21.604Z,28.52
2018-07-22T11:28:50.739Z,29.61
2018-07-22T11:31:19.824Z,28.53
2018-07-22T11:33:48.793Z,27.90
2018-07-22T11:36:17.824Z,30.05
2018-07-22T11:38:46.799Z,29.23
2018-07-22T11:41:15.776Z,29.60
2018-07-22T11:43:44.833Z,29.50
2018-07-22T11:46:13.824Z,29.89
2018-07-22T11:48:42.820Z,30.97
2018-07-22T11:51:11.825Z,30.24
2018-07-22T11:53:41.363Z,29.41
2018-07-22T11:56:10.364Z,30.34
2018-07-22T11:58:39.322Z,28.55
2018-07-22T12:01:08.452Z,30.45
2018-07-22T12:03:38.008Z,29.05
2018-07-22T12:06:07.058Z,30.27
2018-07-22T12:08:36.157Z,30.06
2018-07-22T12:11:05.204Z,30.20
2018-07-22T12:13:34.175Z,30.40
2018-07-22T12:16:03.143Z,30.54
2018-07-22T12:18:32.253Z,31.23
2018-07-22T12:21:01.233Z,29.80
2018-07-22T12:23:30.289Z,31.76
2018-07-22T12:25:59.329Z,29.74
2018-07-22T12:28:28.513Z,29.66
2018-07-22T12:30:57.617Z,30.01
2018-07-22T12:33:26.784Z,30.17
2018-07-22T12:35:55.759Z,31.14
2018-07-22T12:38:24.802Z,30.53
2018-07-22T12:40:53.784Z,29.98
2018-07-22T12:43:22.830Z,30.34
2018-07-22T12:45:51.856Z,29.82
2018-07-22T12:48:20.900Z,30.62
2018-07-22T12:50:50.076Z,30.57
2018-07-22T12:53:19.084Z,32.05
2018-07-22T12:55:48.067Z,33.32
2018-07-22T12:58:17.116Z,33.37
2018-07-22T13:00:46.097Z,30.41
2018-07-22T13:03:15.203Z,31.28
2018-07-22T13:05:44.228Z,31.88
2018-07-22T13:08:13.203Z,31.96
2018-07-22T13:10:42.231Z,33.46
2018-07-22T13:13:11.248Z,34.76
2018-07-22T13:15:40.240Z,36.31
2018-07-22T13:18:09.289Z,35.14
2018-07-22T13:20:38.610Z,34.86
2018-07-22T13:23:08.197Z,35.46
2018-07-22T13:25:37.255Z,35.06
2018-07-22T13:28:06.351Z,35.62
2018-07-22T13:30:35.386Z,35.60
2018-07-22T13:33:04.390Z,34.78
2018-07-22T13:35:33.448Z,35.30
2018-07-22T13:38:02.647Z,35.80
2018-07-22T13:40:31.722Z,34.75
2018-07-22T13:43:00.737Z,35.62
2018-07-22T13:45:29.788Z,35.62
2018-07-22T13:47:58.784Z,35.24
2018-07-22T13:50:27.853Z,35.56
2018-07-22T13:52:56.884Z,33.96
2018-07-22T13:55:25.998Z,34.70
2018-07-22T13:57:55.157Z,35.22
2018-07-22T14:00:24.154Z,35.26
2018-07-22T14:02:53.159Z,35.63
2018-07-22T14:05:22.209Z,34.24
2018-07-22T14:07:51.277Z,34.78
2018-07-22T14:10:20.248Z,33.87
2018-07-22T14:12:49.335Z,33.78
2018-07-22T14:15:18.372Z,35.76
2018-07-22T14:17:47.555Z,34.39
2018-07-22T14:20:16.544Z,34.33
2018-07-22T14:22:45.788Z,33.10
2018-07-22T14:25:14.848Z,34.27
2018-07-22T14:27:44.011Z,33.97
2018-07-22T14:30:13.234Z,33.58
2018-07-22T14:32:42.283Z,34.71
2018-07-22T14:35:11.364Z,37.25
2018-07-22T14:37:40.475Z,34.45
2018-07-22T14:40:09.448Z,36.00
2018-07-22T14:42:38.546Z,36.16
2018-07-22T14:45:08.463Z,37.34
2018-07-22T14:47:37.561Z,37.03
2018-07-22T14:50:06.872Z,37.07
2018-07-22T14:52:35.957Z,37.43
2018-07-22T14:55:05.113Z,37.02
2018-07-22T14:57:34.360Z,37.79
2018-07-22T15:00:03.393Z,38.27
2018-07-22T15:02:32.520Z,38.26
2018-07-22T15:05:01.653Z,38.10
2018-07-22T15:07:30.694Z,37.64
2018-07-22T15:09:59.657Z,38.66
2018-07-22T15:12:28.679Z,38.69
2018-07-22T15:14:57.680Z,39.71
2018-07-22T15:17:26.667Z,41.22
2018-07-22T15:19:55.701Z,40.85
2018-07-22T15:22:24.817Z,41.85
2018-07-22T15:24:53.799Z,41.72
2018-07-22T15:27:22.772Z,43.80
2018-07-22T15:29:51.752Z,44.13
2018-07-22T15:32:20.736Z,44.30
2018-07-22T15:34:49.716Z,44.04
2018-07-22T15:37:18.704Z,44.77
2018-07-22T15:39:47.753Z,44.82
2018-07-22T15:42:16.910Z,45.24
2018-07-22T15:44:45.890Z,47.18
2018-07-22T15:47:14.880Z,50.00
2018-07-22T15:49:43.871Z,49.93
2018-07-22T15:52:13.012Z,51.70
2018-07-22T15:54:41.998Z,57.71
2018-07-22T15:57:11.064Z,65.72
2018-07-22T15:59:40.035Z,67.46
2018-07-22T16:02:09.032Z,69.23
2018-07-22T16:04:38.096Z,70.34
2018-07-22T16:07:07.099Z,70.17
2018-07-22T16:09:36.096Z,69.64
2018-07-22T16:12:05.200Z,67.07
2018-07-22T16:14:34.246Z,65.62
2018-07-22T16:17:03.204Z,61.07
2018-07-22T16:19:32.244Z,63.94
2018-07-22T16:22:01.323Z,61.89
2018-07-22T16:24:30.333Z,63.43
2018-07-22T16:26:59.416Z,64.40
2018-07-22T16:29:28.384Z,65.72
2018-07-22T16:31:57.387Z,65.50
2018-07-22T16:34:26.424Z,65.04
2018-07-22T16:36:55.404Z,62.50
2018-07-22T16:39:24.387Z,66.36
2018-07-22T16:41:53.413Z,62.88
2018-07-22T16:44:22.633Z,66.56
2018-07-22T16:46:51.615Z,66.24
2018-07-22T16:49:20.689Z,65.07
2018-07-22T16:51:49.768Z,65.85
2018-07-22T16:54:18.761Z,63.36
2018-07-22T16:56:47.744Z,65.17
2018-07-22T16:59:16.772Z,66.82
2018-07-22T17:01:45.888Z,68.62
2018-07-22T17:04:14.876Z,71.96
2018-07-22T17:06:43.868Z,71.03
2018-07-22T17:09:12.912Z,69.96
2018-07-22T17:11:41.944Z,72.26
2018-07-22T17:14:11.063Z,73.83
2018-07-22T17:16:40.253Z,73.81
2018-07-22T17:19:09.363Z,75.81
2018-07-22T17:21:38.333Z,76.81
2018-07-22T17:24:07.637Z,76.82
2018-07-22T17:26:36.627Z,77.02
2018-07-22T17:29:05.668Z,77.14
2018-07-22T17:31:34.668Z,78.18
2018-07-22T17:34:03.940Z,81.87
2018-07-22T17:36:33.036Z,81.50
2018-07-22T17:39:02.094Z,85.75
2018-07-22T17:41:31.201Z,85.32
2018-07-22T17:44:00.188Z,82.41
2018-07-22T17:46:29.152Z,81.61
2018-07-22T17:48:58.188Z,77.14
2018-07-22T17:51:27.295Z,81.47
2018-07-22T17:53:56.276Z,83.17
2018-07-22T17:56:25.328Z,85.15
2018-07-22T17:58:54.401Z,81.63
2018-07-22T18:01:23.563Z,82.20
2018-07-22T18:03:52.552Z,84.67
2018-07-22T18:06:21.665Z,83.36
2018-07-22T18:08:50.623Z,82.46
2018-07-22T18:11:19.616Z,84.83
2018-07-22T18:13:48.635Z,84.06
2018-07-22T18:16:17.655Z,82.44
2018-07-22T18:18:46.688Z,77.18
2018-07-22T18:21:15.797Z,80.57
2018-07-22T18:23:44.820Z,76.89
2018-07-22T18:26:13.840Z,75.45
2018-07-22T18:28:44.531Z,74.55
2018-07-22T18:31:13.564Z,75.34
2018-07-22T18:33:42.589Z,75.86
2018-07-22T18:36:11.603Z,77.86
2018-07-22T18:38:40.591Z,78.59
2018-07-22T18:41:09.712Z,79.53
2018-07-22T18:43:38.821Z,78.24
2018-07-22T18:46:08.076Z,78.11
2018-07-22T18:48:37.183Z,79.17
2018-07-22T18:51:06.125Z,79.64
2018-07-22T18:53:35.152Z,82.53
2018-07-22T18:56:04.244Z,83.02
2018-07-22T18:58:33.291Z,84.94
2018-07-22T19:01:02.289Z,82.44
2018-07-22T19:03:31.260Z,80.95
2018-07-22T19:06:00.275Z,83.48
2018-07-22T19:08:29.332Z,83.07
2018-07-22T19:10:58.319Z,85.24
2018-07-22T19:13:27.290Z,85.69
2018-07-22T19:15:56.359Z,85.96
2018-07-22T19:18:25.330Z,85.78
2018-07-22T19:20:54.317Z,87.42
2018-07-22T19:23:23.329Z,89.84
2018-07-22T19:25:52.419Z,86.02
2018-07-22T19:28:21.456Z,85.50
2018-07-22T19:30:50.496Z,87.13
2018-07-22T19:33:19.596Z,86.97
2018-07-22T19:35:48.720Z,87.01
2018-07-22T19:38:17.687Z,81.78
2018-07-22T19:40:46.668Z,82.53
2018-07-22T19:43:15.624Z,83.52
2018-07-22T19:45:44.596Z,82.68
2018-07-22T19:48:13.717Z,84.12
2018-07-22T19:50:42.813Z,85.67
2018-07-22T19:53:11.788Z,84.88
2018-07-22T19:55:40.880Z,84.94
2018-07-22T19:58:09.928Z,85.60
2018-07-22T20:00:38.962Z,85.01
2018-07-22T20:03:08.369Z,85.80
2018-07-22T20:05:37.476Z,85.05
2018-07-22T20:08:06.963Z,84.54
2018-07-22T20:10:35.984Z,84.94
2018-07-22T20:13:05.068Z,85.39
2018-07-22T20:15:34.092Z,85.69
2018-07-22T20:18:03.067Z,86.20
2018-07-22T20:20:32.071Z,86.67
2018-07-22T20:23:01.164Z,86.14
2018-07-22T20:25:30.199Z,86.32
2018-07-22T20:27:59.185Z,85.96
2018-07-22T20:30:28.240Z,86.80
2018-07-22T20:32:57.334Z,87.99
2018-07-22T20:35:26.291Z,86.17
2018-07-22T20:37:55.272Z,86.57
2018-07-22T20:40:24.300Z,87.17
2018-07-22T20:42:53.555Z,87.00
2018-07-22T20:45:22.524Z,86.41
2018-07-22T20:47:51.488Z,86.48
2018-07-22T20:50:20.528Z,87.43
2018-07-22T20:52:49.564Z,87.49
2018-07-22T20:55:18.604Z,88.95
2018-07-22T20:57:47.595Z,88.10
2018-07-22T21:00:16.632Z,88.66
2018-07-22T21:02:45.660Z,87.08
2018-07-22T21:05:14.639Z,88.52
2018-07-22T21:07:43.644Z,89.33
2018-07-22T21:10:12.645Z,90.18
2018-07-22T21:12:53.736Z,90.36
2018-07-22T21:15:22.855Z,90.21
2018-07-22T21:17:52.504Z,91.09
2018-07-22T21:20:22.235Z,91.01
2018-07-22T21:22:51.259Z,89.78
2018-07-22T21:25:20.612Z,89.61
2018-07-22T21:27:49.555Z,89.77
2018-07-22T21:30:18.620Z,89.18
2018-07-22T21:32:47.639Z,88.78
2018-07-22T21:35:16.612Z,90.39
2018-07-22T21:37:45.660Z,90.75
2018-07-22T21:40:14.846Z,91.79
2018-07-22T21:42:43.891Z,91.66
2018-07-22T21:45:12.929Z,89.09
2018-07-22T21:47:42.025Z,88.22
2018-07-22T21:50:10.992Z,88.42
2018-07-22T21:52:40.017Z,89.02
2018-07-22T21:55:09.092Z,89.00
2018-07-22T21:57:38.444Z,89.82
2018-07-22T22:00:12.905Z,89.52
2018-07-22T22:02:41.888Z,90.30
2018-07-22T22:05:10.844Z,90.61
2018-07-22T22:07:39.839Z,89.87
2018-07-22T22:10:08.907Z,90.74
2018-07-22T22:12:37.905Z,91.48
2018-07-22T22:15:11.369Z,91.46
2018-07-22T22:17:40.434Z,92.10
2018-07-22T22:20:09.455Z,93.72
2018-07-22T22:22:38.447Z,94.56
2018-07-22T22:25:07.522Z,91.85
2018-07-22T22:27:36.569Z,86.24
2018-07-22T22:30:06.141Z,86.85
2018-07-22T22:32:35.139Z,87.65
2018-07-22T22:35:04.350Z,87.39
2018-07-22T22:37:33.388Z,86.50
2018-07-22T22:40:02.461Z,87.40
2018-07-22T22:42:31.440Z,87.01
2018-07-22T22:45:00.463Z,87.32
2018-07-22T22:47:29.529Z,86.02
2018-07-22T22:49:58.487Z,86.32
2018-07-22T22:52:27.616Z,85.74
2018-07-22T22:54:56.796Z,85.74
2018-07-22T22:57:26.109Z,85.98
2018-07-22T22:59:55.101Z,86.30
2018-07-22T23:02:24.247Z,86.40
2018-07-22T23:04:53.311Z,87.10
2018-07-22T23:07:22.280Z,88.10
2018-07-22T23:09:51.365Z,90.84
2018-07-22T23:12:20.412Z,90.64
2018-07-22T23:14:49.379Z,91.12
2018-07-22T23:17:18.372Z,94.01
2018-07-22T23:19:47.404Z,96.37
2018-07-22T23:22:16.478Z,94.50
2018-07-22T23:24:45.480Z,96.22
2018-07-22T23:27:14.484Z,97.62
2018-07-22T23:29:43.448Z,97.64
2018-07-22T23:32:12.772Z,96.55
2018-07-22T23:34:41.809Z,98.35
2018-07-22T23:37:10.792Z,98.85
2018-07-22T23:39:39.837Z,100.00
2018-07-22T23:42:09.380Z,100.00
2018-07-22T23:44:38.360Z,100.00
2018-07-22T23:47:07.436Z,100.00
2018-07-22T23:49:36.515Z,100.00
2018-07-22T23:52:05.589Z,100.00
2018-07-22T23:54:34.576Z,100.00
2018-07-22T23:57:03.586Z,100.00
2018-07-22T23:59:32.629Z,100.00
